Time;durP1;ratioP1;P1;durP2;ratioP2;P2;SDS_P1;SDS_P2;PMS_P1;PMS_P2;Temp;Humidity;BMP_temperature;BMP_pressure;BME280_temperature;BME280_humidity;BME280_pressure;Samples;Min_cycle;Max_cycle;Signal;HPM_P1;HPM_P2
2022/11/01 00:00:16;;;;;;;877.30;816.28;;;;;;;16.02;74.16;101164.94;692900;28;23452;-64
2022/11/01 00:00:37;;;;;;;882.25;821.03;;;;;;;16.03;74.14;101166.63;691321;28;43863;-64
2022/11/01 00:00:59;;;;;;;862.85;802.25;;;;;;;16.02;74.10;101167.66;692549;28;22384;-64
2022/11/01 00:01:20;;;;;;;867.22;806.42;;;;;;;16.01;74.17;101160.53;694239;28;22175;-64
2022/11/01 00:01:42;;;;;;;888.47;827.03;;;;;;;16.02;74.20;101164.13;694771;28;44394;-64
2022/11/01 00:02:03;;;;;;;887.38;825.95;;;;;;;16.02;74.21;101167.66;694693;28;46352;-64
2022/11/01 00:02:26;;;;;;;872.45;811.50;;;;;;;16.02;74.12;101164.13;695707;28;22413;-64
2022/11/01 00:02:47;;;;;;;858.35;797.83;;;;;;;16.01;74.10;101160.53;694693;28;45034;-64
2022/11/01 00:03:09;;;;;;;869.90;809.08;;;;;;;16.01;74.17;101174.16;694814;28;22445;-64
2022/11/01 00:03:30;;;;;;;872.78;811.75;;;;;;;15.98;74.16;101163.66;694573;28;44149;-65
2022/11/01 00:03:51;;;;;;;875.25;814.13;;;;;;;15.98;74.41;101165.53;695612;28;23934;-64
2022/11/01 00:04:12;;;;;;;865.08;804.42;;;;;;;15.99;74.22;101169.97;695607;28;23771;-65
2022/11/01 00:04:34;;;;;;;878.92;817.83;;;;;;;16.00;74.34;101168.91;695329;28;21490;-65
2022/11/01 00:04:56;;;;;;;870.72;809.88;;;;;;;16.01;74.43;101162.41;694649;28;45285;-64
2022/11/01 00:05:17;;;;;;;885.00;823.83;;;;;;;16.00;74.19;101174.34;695578;28;23446;-64
2022/11/01 00:05:39;;;;;;;902.47;840.78;;;;;;;16.00;74.29;101166.19;692166;28;21412;-63
2022/11/01 00:06:00;;;;;;;918.70;856.47;;;;;;;16.00;74.26;101171.63;691858;28;45221;-64
2022/11/01 00:06:21;;;;;;;926.65;864.10;;;;;;;16.00;74.50;101169.75;692822;28;21533;-62
2022/11/01 00:06:44;;;;;;;907.75;845.85;;;;;;;16.01;74.45;101167.88;692011;28;44412;-62
2022/11/01 00:07:05;;;;;;;893.90;832.17;;;;;;;15.99;74.33;101161.78;691213;28;46597;-64
2022/11/01 00:07:26;;;;;;;884.05;822.72;;;;;;;16.01;74.28;101165.16;693380;28;22623;-64
2022/11/01 00:07:47;;;;;;;888.92;827.53;;;;;;;16.01;74.38;101156.97;695552;28;22536;-64
2022/11/01 00:08:09;;;;;;;895.08;833.47;;;;;;;16.01;74.42;101163.25;696837;28;22397;-64
2022/11/01 00:08:31;;;;;;;882.38;821.08;;;;;;;16.01;74.32;101159.69;694980;28;22398;-62
2022/11/01 00:08:52;;;;;;;881.28;820.08;;;;;;;16.01;74.38;101162.41;694697;28;44277;-64
2022/11/01 00:09:13;;;;;;;878.58;817.47;;;;;;;16.00;74.23;101160.72;695557;28;21573;-61
2022/11/01 00:09:35;;;;;;;888.72;827.33;;;;;;;16.01;74.33;101159.69;695720;28;22393;-64
2022/11/01 00:09:56;;;;;;;899.88;838.15;;;;;;;16.01;74.26;101163.25;693983;28;69461;-62
2022/11/01 00:10:17;;;;;;;910.40;848.33;;;;;;;16.01;74.34;101151.53;695668;28;22375;-64
2022/11/01 00:10:38;;;;;;;894.40;832.83;;;;;;;16.01;74.32;101148.78;695572;28;22377;-64
2022/11/01 00:11:04;;;;;;;892.15;830.63;;;;;;;16.01;74.34;101146.91;692159;28;21516;-64
2022/11/01 00:11:26;;;;;;;888.42;827.03;;;;;;;16.02;74.40;101147.75;689774;28;114991;-64
2022/11/01 00:11:47;;;;;;;894.72;833.13;;;;;;;16.02;74.38;101150.50;691823;28;69470;-64
2022/11/01 00:12:09;;;;;;;892.92;831.45;;;;;;;15.99;74.25;101143.56;695565;28;23732;-64
2022/11/01 00:12:30;;;;;;;892.33;830.83;;;;;;;16.01;74.35;101137.91;695737;28;22432;-63
2022/11/01 00:12:51;;;;;;;904.20;842.30;;;;;;;16.01;74.36;101143.34;694135;28;46290;-63
2022/11/01 00:13:12;;;;;;;898.75;836.95;;;;;;;16.01;74.41;101143.34;694560;28;23459;-64
2022/11/01 00:13:34;;;;;;;890.10;828.60;;;;;;;16.02;74.20;101140.44;692410;28;23524;-64
2022/11/01 00:13:56;;;;;;;888.70;827.30;;;;;;;16.01;74.50;101141.47;694717;28;47198;-64
2022/11/01 00:14:18;;;;;;;900.13;838.42;;;;;;;16.01;74.50;101138.72;694147;28;46479;-63
2022/11/01 00:14:40;;;;;;;899.22;837.58;;;;;;;16.01;74.52;101138.72;694783;28;46398;-64
2022/11/01 00:15:02;;;;;;;885.63;824.38;;;;;;;15.98;74.31;101130.13;694564;28;46273;-63
2022/11/01 00:15:23;;;;;;;894.75;833.25;;;;;;;16.02;74.20;101132.25;694798;28;46750;-62
2022/11/01 00:15:44;;;;;;;899.45;837.75;;;;;;;16.04;74.44;101134.78;694344;28;21538;-64
2022/11/01 00:16:06;;;;;;;899.20;837.45;;;;;;;16.04;74.42;101135.59;692854;28;23655;-64
2022/11/01 00:16:30;;;;;;;888.70;827.30;;;;;;;16.04;74.29;101132.03;692129;28;44386;-63
2022/11/01 00:16:52;;;;;;;871.17;810.20;;;;;;;16.04;74.28;101134.78;690471;28;92280;-63
2022/11/01 00:17:13;;;;;;;861.88;801.08;;;;;;;16.04;74.40;101126.59;691769;28;44321;-64
2022/11/01 00:17:35;;;;;;;871.22;810.33;;;;;;;16.04;74.38;101132.03;692850;28;22357;-63
2022/11/01 00:17:57;;;;;;;860.83;800.22;;;;;;;16.03;74.29;101125.78;691264;28;46430;-64
2022/11/01 00:18:19;;;;;;;856.63;796.13;;;;;;;16.02;74.32;101126.81;692664;28;21561;-65
2022/11/01 00:18:40;;;;;;;869.53;808.60;;;;;;;16.04;74.37;101127.44;690757;28;69349;-61
2022/11/01 00:19:01;;;;;;;890.47;828.95;;;;;;;16.04;74.17;101127.44;692792;28;23503;-63
2022/11/01 00:19:23;;;;;;;880.35;819.17;;;;;;;16.03;74.30;101119.47;692766;28;23492;-63
2022/11/01 00:19:45;;;;;;;871.88;810.92;;;;;;;16.05;74.41;101122.84;690866;28;44562;-64
2022/11/01 00:20:07;;;;;;;865.88;805.17;;;;;;;16.04;74.44;101116.53;692061;28;46240;-63
2022/11/01 00:20:29;;;;;;;866.63;805.92;;;;;;;16.05;74.33;101122.84;691366;28;66987;-64
2022/11/01 00:20:52;;;;;;;864.00;803.30;;;;;;;16.03;74.28;101116.72;691982;28;46732;-64
2022/11/01 00:21:14;;;;;;;861.50;800.92;;;;;;;16.03;74.38;101123.03;692171;28;46427;-64
2022/11/01 00:21:36;;;;;;;854.85;794.40;;;;;;;16.05;74.33;101122.84;691860;28;46235;-63
2022/11/01 00:21:57;;;;;;;861.72;801.05;;;;;;;16.06;74.26;101112.78;692110;28;46330;-64
2022/11/01 00:22:18;;;;;;;876.10;815.10;;;;;;;16.06;74.36;101118.22;692901;28;23410;-64
2022/11/01 00:22:39;;;;;;;869.95;809.15;;;;;;;16.04;74.09;101121.97;694970;28;22373;-64
2022/11/01 00:23:00;;;;;;;874.97;813.97;;;;;;;16.06;74.09;101116.31;695653;28;22425;-63
2022/11/01 00:23:23;;;;;;;864.13;803.42;;;;;;;16.05;74.38;101117.38;694614;28;44379;-64
2022/11/01 00:23:44;;;;;;;873.50;812.53;;;;;;;16.07;74.17;101117.19;694287;28;45150;-64
2022/11/01 00:24:06;;;;;;;866.45;805.83;;;;;;;16.08;74.31;101118.84;694557;28;44378;-64
2022/11/01 00:24:29;;;;;;;878.15;817.25;;;;;;;16.08;74.03;101118.84;695289;28;23523;-63
2022/11/01 00:24:51;;;;;;;855.38;795.08;;;;;;;16.06;74.30;101115.50;692605;28;93332;-63
2022/11/01 00:25:12;;;;;;;864.00;803.38;;;;;;;16.06;74.39;101116.31;695530;28;22375;-64
2022/11/01 00:25:33;;;;;;;865.72;805.08;;;;;;;16.07;74.15;101118.00;692457;28;21876;-63
2022/11/01 00:25:57;;;;;;;870.50;809.67;;;;;;;16.06;74.25;101108.16;692550;28;21555;-63
2022/11/01 00:26:22;;;;;;;875.35;814.40;;;;;;;16.06;74.35;101108.16;688503;28;113627;-62
2022/11/01 00:26:44;;;;;;;873.17;812.28;;;;;;;16.07;74.23;101107.13;689345;28;115107;-66
2022/11/01 00:27:05;;;;;;;872.03;811.05;;;;;;;16.07;74.18;101109.84;691996;28;23427;-64
2022/11/01 00:27:26;;;;;;;869.17;808.35;;;;;;;16.08;74.43;101102.50;693888;28;23750;-64
2022/11/01 00:27:48;;;;;;;885.13;823.85;;;;;;;16.08;74.38;101103.38;695350;28;23438;-63
2022/11/01 00:28:09;;;;;;;865.65;804.92;;;;;;;16.08;74.28;101105.22;693690;28;68304;-64
2022/11/01 00:28:31;;;;;;;878.03;816.97;;;;;;;16.09;74.27;101102.28;695240;28;22393;-64
2022/11/01 00:28:52;;;;;;;859.38;798.72;;;;;;;16.10;74.25;101105.88;693621;28;46689;-64
2022/11/01 00:29:15;;;;;;;851.05;790.70;;;;;;;16.09;74.17;101104.19;694552;28;22376;-63
2022/11/01 00:29:36;;;;;;;874.45;813.40;;;;;;;16.08;74.36;101106.09;693867;28;67370;-63
2022/11/01 00:29:57;;;;;;;878.10;816.85;;;;;;;16.08;74.37;101106.09;692072;28;23499;-63
2022/11/01 00:30:18;;;;;;;871.92;811.00;;;;;;;16.08;74.18;101107.94;692722;28;22387;-63
2022/11/01 00:30:40;;;;;;;862.88;802.28;;;;;;;16.08;74.26;101111.53;692730;28;22465;-64
2022/11/01 00:31:02;;;;;;;881.10;819.92;;;;;;;16.09;74.23;101109.63;692517;28;23380;-64
2022/11/01 00:31:23;;;;;;;888.10;826.63;;;;;;;16.10;74.23;101114.06;690350;28;69305;-64
2022/11/01 00:31:44;;;;;;;893.90;832.25;;;;;;;16.09;74.07;101110.47;693135;28;23491;-64
2022/11/01 00:32:06;;;;;;;880.63;819.42;;;;;;;16.10;74.00;101120.34;695421;28;21465;-64
2022/11/01 00:32:28;;;;;;;901.65;839.92;;;;;;;16.11;74.02;101121.16;694779;28;44383;-63
2022/11/01 00:32:50;;;;;;;884.08;822.88;;;;;;;16.10;74.00;101127.69;694729;28;46323;-65
2022/11/01 00:33:12;;;;;;;895.13;833.55;;;;;;;16.10;74.18;101133.13;694683;28;46413;-64
2022/11/01 00:33:33;;;;;;;886.38;825.08;;;;;;;16.08;74.05;101133.34;694291;28;44398;-64
2022/11/01 00:33:54;;;;;;;878.88;817.90;;;;;;;16.08;74.13;101135.19;695461;28;22247;-64
2022/11/01 00:34:16;;;;;;;876.15;815.13;;;;;;;16.05;74.06;101133.75;695440;28;22429;-64
2022/11/01 00:34:37;;;;;;;889.85;828.42;;;;;;;16.06;74.24;101132.66;694748;28;44330;-64
2022/11/01 00:34:59;;;;;;;879.28;818.20;;;;;;;16.04;74.00;101135.59;694629;28;46297;-64
2022/11/01 00:35:20;;;;;;;877.30;816.28;;;;;;;16.05;74.05;101133.75;695549;28;22394;-64
2022/11/01 00:35:41;;;;;;;876.38;815.38;;;;;;;16.05;74.04;101131.00;695607;28;21534;-63
2022/11/01 00:36:03;;;;;;;884.60;823.35;;;;;;;16.04;74.31;101127.44;695508;28;21524;-64
2022/11/01 00:36:25;;;;;;;871.60;810.75;;;;;;;16.04;74.23;101123.88;694002;28;69437;-64
2022/11/01 00:36:46;;;;;;;884.90;823.63;;;;;;;16.04;74.22;101123.88;694858;28;23409;-63
2022/11/01 00:37:07;;;;;;;898.50;836.63;;;;;;;16.04;74.58;101121.16;694641;28;21520;-64
2022/11/01 00:37:28;;;;;;;892.58;831.03;;;;;;;16.02;74.61;101118.63;695513;28;22383;-64
2022/11/01 00:37:50;;;;;;;866.58;805.88;;;;;;;16.02;74.65;101115.91;695528;28;22484;-64
2022/11/01 00:38:12;;;;;;;886.28;824.85;;;;;;;16.01;74.65;101118.84;696165;28;46398;-64
2022/11/01 00:38:34;;;;;;;878.00;816.85;;;;;;;16.03;74.51;101111.28;696553;28;44384;-64
2022/11/01 00:38:55;;;;;;;861.25;800.67;;;;;;;16.02;74.55;101106.91;692809;28;22990;-64
2022/11/01 00:39:26;;;;;;;887.47;826.17;;;;;;;16.02;74.69;101110.44;691643;28;60695;-64
2022/11/01 00:39:47;;;;;;;878.25;817.15;;;;;;;16.01;74.47;101106.03;693353;28;44399;-64
2022/11/01 00:40:11;;;;;;;893.50;832.03;;;;;;;16.03;74.75;101114.00;695017;28;22408;-64
2022/11/01 00:40:32;;;;;;;877.53;816.42;;;;;;;16.04;74.50;101104.81;692407;28;113581;-65
2022/11/01 00:40:54;;;;;;;878.08;816.92;;;;;;;16.04;74.50;101105.63;694824;28;22392;-65
2022/11/01 00:41:18;;;;;;;881.85;820.65;;;;;;;16.03;74.50;101101.25;692940;28;22392;-65
2022/11/01 00:41:39;;;;;;;883.25;821.97;;;;;;;16.06;74.37;101110.03;693169;28;90503;-65
2022/11/01 00:42:00;;;;;;;894.55;832.95;;;;;;;16.06;74.31;101099.16;694765;28;44366;-65
2022/11/01 00:42:21;;;;;;;912.00;849.85;;;;;;;16.07;74.29;101109.84;695500;28;21419;-64
2022/11/01 00:42:44;;;;;;;897.88;836.20;;;;;;;16.07;74.50;101109.00;695440;28;22446;-64
2022/11/01 00:43:05;;;;;;;892.08;830.63;;;;;;;16.06;74.42;101105.44;694618;28;46320;-65
2022/11/01 00:43:26;;;;;;;890.38;828.97;;;;;;;16.07;74.48;101101.66;695596;28;22426;-64
2022/11/01 00:43:48;;;;;;;891.42;829.95;;;;;;;16.06;74.60;101097.25;694209;28;47608;-62
2022/11/01 00:44:10;;;;;;;902.85;841.00;;;;;;;16.05;74.11;101103.78;695337;28;23491;-62
2022/11/01 00:44:32;;;;;;;876.92;815.85;;;;;;;16.04;74.48;101105.63;696206;28;896;-62
2022/11/01 00:44:53;;;;;;;882.00;820.70;;;;;;;16.04;74.62;101102.06;695403;28;21471;-64
2022/11/01 00:45:14;;;;;;;906.50;844.53;;;;;;;16.06;74.38;101105.44;694811;28;46312;-64
2022/11/01 00:45:35;;;;;;;882.53;821.35;;;;;;;16.06;74.49;101104.59;695477;28;23478;-63
2022/11/01 00:45:58;;;;;;;900.45;838.72;;;;;;;16.07;74.53;101112.56;695528;28;21479;-64
2022/11/01 00:46:21;;;;;;;915.63;853.42;;;;;;;16.07;74.49;101112.56;693862;28;70297;-64
2022/11/01 00:46:42;;;;;;;883.10;821.83;;;;;;;16.07;74.55;101109.00;693803;28;70144;-64
2022/11/01 00:47:03;;;;;;;888.42;826.85;;;;;;;16.08;74.37;101108.81;694982;28;22194;-65
2022/11/01 00:47:25;;;;;;;884.80;823.40;;;;;;;16.08;74.37;101116.97;695899;28;7990;-64
2022/11/01 00:47:47;;;;;;;892.13;830.63;;;;;;;16.08;74.14;101118.84;694511;28;45062;-63
2022/11/01 00:48:10;;;;;;;886.58;825.08;;;;;;;16.07;74.09;101122.63;694496;28;45228;-64
2022/11/01 00:48:31;;;;;;;904.13;842.15;;;;;;;16.05;74.20;101111.94;690606;28;69563;-64
2022/11/01 00:48:52;;;;;;;900.75;838.83;;;;;;;16.05;74.31;101122.84;692654;28;22631;-64
2022/11/01 00:49:14;;;;;;;875.97;814.88;;;;;;;16.03;74.22;101117.59;692681;28;22479;-64
2022/11/01 00:49:35;;;;;;;887.58;826.15;;;;;;;16.02;74.16;101112.34;691860;28;45230;-65
2022/11/01 00:49:56;;;;;;;867.80;806.97;;;;;;;16.02;74.46;101120.53;694163;28;22407;-65
2022/11/01 00:50:17;;;;;;;880.63;819.42;;;;;;;16.01;74.56;101113.38;692035;28;23484;-63
2022/11/01 00:50:41;;;;;;;873.78;812.78;;;;;;;16.02;74.65;101115.06;688594;28;46334;-65
2022/11/01 00:51:03;;;;;;;879.90;818.70;;;;;;;16.01;74.61;101116.94;688229;28;68317;-64
2022/11/01 00:51:25;;;;;;;881.80;820.70;;;;;;;16.00;74.61;101111.69;688238;28;68316;-64
2022/11/01 00:51:46;;;;;;;867.13;806.50;;;;;;;16.01;74.75;101108.75;689697;28;23625;-65
2022/11/01 00:52:07;;;;;;;864.65;804.13;;;;;;;16.02;74.57;101113.19;689931;28;21533;-65
2022/11/01 00:52:29;;;;;;;868.78;808.05;;;;;;;16.02;74.58;101109.63;690871;28;21452;-65
2022/11/01 00:52:50;;;;;;;878.63;817.50;;;;;;;16.02;74.57;101115.06;691702;28;46319;-63
2022/11/01 00:53:11;;;;;;;866.03;805.28;;;;;;;16.00;74.65;101115.28;691998;28;46696;-63
2022/11/01 00:53:33;;;;;;;870.13;809.15;;;;;;;16.02;74.95;101117.81;692200;28;23488;-63
2022/11/01 00:53:55;;;;;;;889.95;828.50;;;;;;;16.02;74.88;101112.34;691859;28;46315;-64
2022/11/01 00:54:16;;;;;;;896.22;834.53;;;;;;;16.00;74.73;101115.28;691356;28;46429;-64
2022/11/01 00:54:37;;;;;;;887.00;825.60;;;;;;;16.01;74.74;101114.22;692438;28;21559;-62
2022/11/01 00:54:59;;;;;;;877.47;816.38;;;;;;;16.01;74.66;101108.75;692128;28;22400;-64
2022/11/01 00:55:20;;;;;;;896.78;835.10;;;;;;;16.01;74.82;101108.75;692448;28;22182;-63
2022/11/01 00:55:42;;;;;;;878.20;817.13;;;;;;;16.01;74.62;101108.75;692540;28;22433;-63
2022/11/01 00:56:04;;;;;;;893.83;832.17;;;;;;;16.01;74.75;101103.31;692159;28;44367;-64
2022/11/01 00:56:26;;;;;;;880.30;819.05;;;;;;;16.01;74.90;101107.94;693972;28;68542;-64
2022/11/01 00:56:47;;;;;;;889.08;827.60;;;;;;;16.02;74.84;101105.00;694251;28;44304;-63
2022/11/01 00:57:09;;;;;;;882.10;820.67;;;;;;;16.01;74.88;101108.75;694771;28;21634;-62
2022/11/01 00:57:30;;;;;;;876.42;815.25;;;;;;;16.01;74.78;101107.94;694417;28;44388;-62
2022/11/01 00:57:52;;;;;;;885.40;823.97;;;;;;;16.03;74.92;101105.84;695375;28;22378;-64
2022/11/01 00:58:13;;;;;;;879.28;818.05;;;;;;;16.04;75.02;101102.91;695323;28;21537;-64
2022/11/01 00:58:35;;;;;;;886.38;824.97;;;;;;;16.05;75.02;101109.22;694304;28;45164;-64
2022/11/01 00:58:56;;;;;;;870.63;809.63;;;;;;;16.06;74.69;101112.78;694456;28;45197;-64
2022/11/01 00:59:18;;;;;;;877.83;816.63;;;;;;;16.04;74.70;101113.81;694544;28;22442;-64
2022/11/01 00:59:39;;;;;;;878.58;817.40;;;;;;;16.04;74.73;101116.53;695459;28;21539;-64
2022/11/01 01:00:00;;;;;;;887.78;826.33;;;;;;;16.03;74.95;101114.00;694717;28;45119;-63
2022/11/01 01:00:22;;;;;;;889.08;827.65;;;;;;;16.02;74.65;101113.19;695549;28;22420;-63
2022/11/01 01:00:43;;;;;;;875.60;814.55;;;;;;;16.03;74.67;101105.84;694035;28;45272;-63
2022/11/01 01:01:04;;;;;;;876.58;815.53;;;;;;;16.04;74.80;101112.97;695342;28;21514;-64
2022/11/01 01:01:25;;;;;;;879.25;818.25;;;;;;;16.04;74.97;101108.34;695520;28;23542;-65
2022/11/01 01:01:46;;;;;;;877.65;816.58;;;;;;;16.02;74.87;101105.00;695343;28;23734;-65
2022/11/01 01:02:08;;;;;;;885.42;824.17;;;;;;;16.04;74.90;101112.97;695504;28;22215;-64
2022/11/01 01:02:30;;;;;;;873.30;812.35;;;;;;;16.03;74.87;101108.56;693870;28;67283;-65
2022/11/01 01:02:54;;;;;;;881.08;819.72;;;;;;;16.03;74.84;101111.28;694595;28;21419;-65
2022/11/01 01:03:17;;;;;;;879.55;818.30;;;;;;;16.06;74.95;101110.03;692974;28;92125;-64
2022/11/01 01:03:38;;;;;;;879.03;817.88;;;;;;;16.06;75.06;101101.88;693452;28;69253;-64
2022/11/01 01:03:59;;;;;;;892.35;830.78;;;;;;;16.06;74.86;101110.88;695515;28;22449;-64
2022/11/01 01:04:21;;;;;;;886.03;824.58;;;;;;;16.05;74.82;101106.50;693469;28;46401;-65
2022/11/01 01:04:42;;;;;;;873.47;812.50;;;;;;;16.07;74.54;101111.75;695505;28;22195;-64
2022/11/01 01:05:04;;;;;;;866.28;805.50;;;;;;;16.05;74.68;101103.78;695400;28;22417;-64
2022/11/01 01:05:27;;;;;;;882.45;821.15;;;;;;;16.05;74.55;101111.94;695284;28;1321;-64
2022/11/01 01:05:51;;;;;;;868.38;807.45;;;;;;;16.04;74.77;101111.09;694575;28;46352;-63
2022/11/01 01:06:14;;;;;;;867.80;807.00;;;;;;;16.04;74.59;101105.63;692247;28;115838;-64
2022/11/01 01:06:36;;;;;;;899.80;838.03;;;;;;;16.04;74.46;101107.53;694657;28;46368;-64
2022/11/01 01:06:57;;;;;;;888.40;826.75;;;;;;;16.03;74.23;101106.69;693305;28;67476;-64
2022/11/01 01:07:18;;;;;;;903.65;841.45;;;;;;;16.04;74.64;101107.53;695131;28;22230;-64
2022/11/01 01:07:39;;;;;;;905.72;843.72;;;;;;;16.03;74.31;101103.13;695368;28;22380;-64
2022/11/01 01:08:01;;;;;;;893.63;831.88;;;;;;;16.03;74.43;101111.28;692801;28;20432;-64
2022/11/01 01:08:25;;;;;;;902.22;840.20;;;;;;;16.03;74.53;101111.28;695841;28;1194;-64
2022/11/01 01:08:46;;;;;;;880.08;818.80;;;;;;;16.01;74.58;101108.75;693998;28;46336;-63
2022/11/01 01:09:09;;;;;;;878.28;817.22;;;;;;;16.01;74.55;101111.50;695327;28;23529;-63
2022/11/01 01:09:31;;;;;;;884.28;823.00;;;;;;;16.01;74.42;101107.94;694277;28;46380;-64
2022/11/01 01:09:53;;;;;;;904.17;842.25;;;;;;;16.00;74.50;101106.25;695604;28;46251;-63
2022/11/01 01:10:14;;;;;;;903.40;841.45;;;;;;;15.99;74.60;101107.31;695446;28;45114;-63
2022/11/01 01:10:35;;;;;;;901.47;839.65;;;;;;;15.99;74.35;101096.41;695415;28;21607;-63
2022/11/01 01:10:56;;;;;;;913.22;851.15;;;;;;;15.98;74.50;101102.88;691950;28;22408;-63
2022/11/01 01:11:18;;;;;;;878.38;817.33;;;;;;;15.98;74.20;101105.63;692551;28;22398;-63
2022/11/01 01:11:39;;;;;;;869.83;808.97;;;;;;;15.96;74.36;101097.66;691585;28;46378;-65
2022/11/01 01:12:01;;;;;;;876.55;815.42;;;;;;;15.95;74.38;101101.41;692445;28;23522;-64
2022/11/01 01:12:22;;;;;;;892.38;830.75;;;;;;;15.95;74.51;101100.56;692642;28;21519;-62
2022/11/01 01:12:43;;;;;;;919.78;857.38;;;;;;;15.94;74.46;101090.72;691757;28;45244;-63
2022/11/01 01:13:05;;;;;;;912.40;850.22;;;;;;;15.95;74.44;101086.94;695503;28;22366;-64
2022/11/01 01:13:26;;;;;;;885.42;824.08;;;;;;;15.95;74.58;101090.50;694618;28;44397;-64
2022/11/01 01:13:47;;;;;;;871.38;810.45;;;;;;;15.94;74.33;101086.13;694181;28;22407;-64
2022/11/01 01:14:08;;;;;;;873.00;812.15;;;;;;;15.94;74.49;101083.41;695546;28;22181;-63
2022/11/01 01:14:29;;;;;;;870.85;810.00;;;;;;;15.94;74.30;101082.53;695620;28;22395;-62
2022/11/01 01:14:54;;;;;;;868.20;807.30;;;;;;;15.87;74.65;101073.53;695339;28;23467;-64
2022/11/01 01:15:16;;;;;;;876.92;815.78;;;;;;;15.93;74.54;101078.16;691368;28;138196;-65
2022/11/01 01:15:37;;;;;;;866.40;805.65;;;;;;;15.93;74.39;101078.16;694659;28;45542;-64
2022/11/01 01:15:59;;;;;;;863.53;802.85;;;;;;;15.92;74.38;101076.47;695532;28;23501;-64
2022/11/01 01:16:21;;;;;;;862.50;801.88;;;;;;;15.92;74.25;101069.13;694796;28;45392;-63
2022/11/01 01:16:42;;;;;;;865.63;804.88;;;;;;;15.92;74.22;101069.13;692499;28;44320;-64
2022/11/01 01:17:03;;;;;;;871.22;810.22;;;;;;;15.91;74.41;101067.47;691846;28;22462;-63
2022/11/01 01:17:24;;;;;;;867.63;806.70;;;;;;;15.92;74.46;101071.00;692686;28;23680;-64
2022/11/01 01:17:46;;;;;;;869.22;808.45;;;;;;;15.91;74.67;101070.19;688900;28;44243;-64
2022/11/01 01:18:08;;;;;;;856.58;796.05;;;;;;;15.92;74.29;101073.75;689561;28;23942;-64
2022/11/01 01:18:30;;;;;;;871.83;810.80;;;;;;;15.91;74.42;101072.91;688371;28;46198;-65
2022/11/01 01:18:52;;;;;;;881.70;820.33;;;;;;;15.91;74.27;101067.47;687048;28;89274;-63
2022/11/01 01:19:13;;;;;;;873.70;812.75;;;;;;;15.90;74.28;101073.13;689952;28;21431;-65
2022/11/01 01:19:34;;;;;;;883.22;822.08;;;;;;;15.90;74.41;101067.66;690567;28;23499;-64
2022/11/01 01:19:56;;;;;;;868.83;808.08;;;;;;;15.89;74.58;101068.69;693368;28;835;-64
2022/11/01 01:20:19;;;;;;;859.33;798.90;;;;;;;15.88;74.47;101067.00;692037;28;44400;-65
2022/11/01 01:20:40;;;;;;;879.33;818.25;;;;;;;15.86;74.24;101072.66;691126;28;69418;-64
2022/11/01 01:21:02;;;;;;;863.28;802.63;;;;;;;15.85;74.36;101066.38;692713;28;23341;-65
2022/11/01 01:21:24;;;;;;;872.72;811.80;;;;;;;15.84;74.49;101063.88;691253;28;69296;-65
2022/11/01 01:21:45;;;;;;;877.28;816.13;;;;;;;15.85;74.83;101065.56;694353;28;46304;-65
2022/11/01 01:22:06;;;;;;;887.28;825.85;;;;;;;15.84;74.50;101070.13;695409;28;23473;-65
2022/11/01 01:22:28;;;;;;;892.28;830.80;;;;;;;15.83;74.69;101068.47;695454;28;21498;-64
2022/11/01 01:22:49;;;;;;;893.80;832.20;;;;;;;15.83;74.91;101067.63;695473;28;21335;-65
2022/11/01 01:23:11;;;;;;;917.97;855.65;;;;;;;15.83;74.77;101071.22;695270;28;22423;-64
2022/11/01 01:23:32;;;;;;;909.67;847.58;;;;;;;15.84;74.72;101063.88;694063;28;45382;-65
2022/11/01 01:23:54;;;;;;;885.92;824.50;;;;;;;15.84;74.82;101061.16;694586;28;45250;-65
2022/11/01 01:24:15;;;;;;;870.88;810.03;;;;;;;15.83;75.03;101060.31;695455;28;23453;-65
2022/11/01 01:24:37;;;;;;;899.15;837.42;;;;;;;15.84;74.72;101055.69;695405;28;22053;-65
2022/11/01 01:24:58;;;;;;;908.55;846.38;;;;;;;15.83;74.89;101059.44;690003;28;69705;-65
2022/11/01 01:25:20;;;;;;;879.85;818.70;;;;;;;15.85;74.82;101060.94;692483;28;20790;-63
2022/11/01 01:25:41;;;;;;;880.90;819.70;;;;;;;15.84;74.93;101056.53;691735;28;46457;-64
2022/11/01 01:26:06;;;;;;;872.05;811.15;;;;;;;15.84;74.82;101053.81;692480;28;23413;-65
2022/11/01 01:26:27;;;;;;;877.90;816.75;;;;;;;15.84;74.79;101047.53;690024;28;92457;-65
2022/11/01 01:26:48;;;;;;;902.70;840.88;;;;;;;15.83;75.43;101043.09;692518;28;46313;-68
2022/11/01 01:27:10;;;;;;;907.20;845.13;;;;;;;15.84;75.03;101048.34;694935;28;22399;-65
2022/11/01 01:27:31;;;;;;;911.15;849.03;;;;;;;15.84;75.26;101047.53;695292;28;21842;-65
2022/11/01 01:27:53;;;;;;;880.75;819.60;;;;;;;15.84;75.39;101048.34;694432;28;46324;-65
2022/11/01 01:28:14;;;;;;;871.30;810.45;;;;;;;15.78;75.59;101038.31;694315;28;46279;-65
2022/11/01 01:28:36;;;;;;;873.47;812.53;;;;;;;15.86;75.22;101039.97;694793;28;23375;-64
2022/11/01 01:28:57;;;;;;;881.33;820.13;;;;;;;15.87;75.26;101041.66;694518;28;46340;-64
2022/11/01 01:29:18;;;;;;;865.08;804.42;;;;;;;15.89;75.33;101046.91;695300;28;22424;-64
2022/11/01 01:29:40;;;;;;;876.38;815.40;;;;;;;15.87;75.48;101041.66;695444;28;22397;-64
2022/11/01 01:30:02;;;;;;;883.22;822.05;;;;;;;15.90;75.25;101043.97;694687;28;44409;-64
2022/11/01 01:30:23;;;;;;;897.47;835.83;;;;;;;15.90;75.30;101035.81;694641;28;45270;-64
2022/11/01 01:30:45;;;;;;;900.58;838.80;;;;;;;15.92;75.50;101054.69;695222;28;23562;-64
2022/11/01 01:31:07;;;;;;;907.22;845.17;;;;;;;15.92;75.24;101041.06;694672;28;46279;-64
2022/11/01 01:31:34;;;;;;;899.33;837.63;;;;;;;15.92;75.42;101043.78;694141;28;61524;-64
2022/11/01 01:31:55;;;;;;;894.33;832.78;;;;;;;15.93;75.36;101040.03;695281;28;22389;-64
2022/11/01 01:32:19;;;;;;;903.22;841.42;;;;;;;15.95;75.18;101044.19;694579;28;44464;-64
2022/11/01 01:32:41;;;;;;;902.88;840.97;;;;;;;15.95;75.16;101043.38;693779;28;69435;-64
2022/11/01 01:33:02;;;;;;;887.70;826.28;;;;;;;15.95;75.27;101041.47;694555;28;46657;-64
2022/11/01 01:33:23;;;;;;;893.90;832.25;;;;;;;15.94;75.15;101039.81;694583;28;46365;-64
2022/11/01 01:33:46;;;;;;;904.15;842.22;;;;;;;15.94;75.05;101037.09;694904;28;22356;-65
2022/11/01 01:34:08;;;;;;;895.40;833.72;;;;;;;15.95;75.22;101038.75;691538;28;46297;-65
2022/11/01 01:34:31;;;;;;;879.38;818.30;;;;;;;15.97;75.11;101044.00;691415;28;47437;-65
2022/11/01 01:34:52;;;;;;;886.90;825.45;;;;;;;15.95;75.03;101038.75;689894;28;92120;-64
2022/11/01 01:35:14;;;;;;;889.80;828.33;;;;;;;15.97;75.01;101044.00;692524;28;23479;-62
2022/11/01 01:35:37;;;;;;;886.67;825.28;;;;;;;15.96;75.02;101047.78;692409;28;22415;-62
2022/11/01 01:35:59;;;;;;;886.85;825.53;;;;;;;15.96;74.92;101043.16;691056;28;92239;-63
2022/11/01 01:36:20;;;;;;;896.67;835.05;;;;;;;15.96;74.89;101051.34;695483;28;22432;-63
2022/11/01 01:36:41;;;;;;;886.53;825.15;;;;;;;15.97;75.09;101058.47;694873;28;22191;-63
2022/11/01 01:37:03;;;;;;;881.78;820.55;;;;;;;15.97;75.02;101057.63;694842;28;22385;-63
2022/11/01 01:37:24;;;;;;;892.03;830.38;;;;;;;15.94;74.75;101052.56;693708;28;69773;-63
2022/11/01 01:37:45;;;;;;;884.92;823.58;;;;;;;15.95;75.02;101059.72;695345;28;22453;-63